sensor_id;sensor_type;location;lat;lon;timestamp;pressure;altitude;pressure_sealevel;temperature;humidity
56414;BME280;42318;48.452;19.526;2023-02-01T00:04:47;97925.94;;;17.86;48.78
56414;BME280;42318;48.452;19.526;2023-02-01T00:12:18;97920.22;;;17.83;48.71
56414;BME280;42318;48.452;19.526;2023-02-01T00:19:49;97905.84;;;17.82;48.57
56414;BME280;42318;48.452;19.526;2023-02-01T00:27:20;97898.47;;;17.78;49.11
56414;BME280;42318;48.452;19.526;2023-02-01T00:34:51;97884.94;;;17.78;49.09
56414;BME280;42318;48.452;19.526;2023-02-01T00:42:22;97900.59;;;17.76;49.06
56414;BME280;42318;48.452;19.526;2023-02-01T00:49:53;97888.94;;;17.75;48.91
56414;BME280;42318;48.452;19.526;2023-02-01T00:57:23;97906.59;;;17.78;48.88
56414;BME280;42318;48.452;19.526;2023-02-01T01:04:54;97909.19;;;17.68;49.19
56414;BME280;42318;48.452;19.526;2023-02-01T01:12:25;97888.13;;;17.75;48.98
56414;BME280;42318;48.452;19.526;2023-02-01T01:19:56;97869.28;;;17.85;48.76
56414;BME280;42318;48.452;19.526;2023-02-01T01:27:26;97848.13;;;17.82;48.61
56414;BME280;42318;48.452;19.526;2023-02-01T01:34:57;97851.13;;;17.85;48.64
56414;BME280;42318;48.452;19.526;2023-02-01T01:42:28;97850.31;;;17.85;48.58
56414;BME280;42318;48.452;19.526;2023-02-01T01:49:59;97805.28;;;17.79;48.82
56414;BME280;42318;48.452;19.526;2023-02-01T01:57:35;97835.81;;;17.74;48.99
56414;BME280;42318;48.452;19.526;2023-02-01T02:05:10;97830.22;;;17.81;48.84
56414;BME280;42318;48.452;19.526;2023-02-01T02:12:44;97854.59;;;17.81;48.92
56414;BME280;42318;48.452;19.526;2023-02-01T02:28:10;97853.03;;;17.85;48.71
56414;BME280;42318;48.452;19.526;2023-02-01T02:43:48;97846.22;;;17.82;48.71
56414;BME280;42318;48.452;19.526;2023-02-01T02:51:58;97871.75;;;17.86;48.61
56414;BME280;42318;48.452;19.526;2023-02-01T02:59:52;97867.09;;;17.82;48.81
56414;BME280;42318;48.452;19.526;2023-02-01T03:08:12;97859.91;;;17.71;49.09
56414;BME280;42318;48.452;19.526;2023-02-01T03:15:53;97835.91;;;17.79;48.75
56414;BME280;42318;48.452;19.526;2023-02-01T03:23:30;97854.91;;;17.84;48.85
56414;BME280;42318;48.452;19.526;2023-02-01T03:31:04;97848.13;;;17.82;49.02
56414;BME280;42318;48.452;19.526;2023-02-01T03:46:32;97848.13;;;17.82;48.56
56414;BME280;42318;48.452;19.526;2023-02-01T03:54:05;97894.75;;;17.84;48.87
56414;BME280;42318;48.452;19.526;2023-02-01T04:01:37;97913.97;;;17.82;48.99
56414;BME280;42318;48.452;19.526;2023-02-01T04:09:08;97912.84;;;17.78;48.89
56414;BME280;42318;48.452;19.526;2023-02-01T04:16:39;97920.22;;;17.83;48.76
56414;BME280;42318;48.452;19.526;2023-02-01T04:24:10;97914.91;;;17.71;49.15
56414;BME280;42318;48.452;19.526;2023-02-01T04:31:41;97903.94;;;17.83;48.86
56414;BME280;42318;48.452;19.526;2023-02-01T04:39:11;97909.25;;;17.73;49.06
56414;BME280;42318;48.452;19.526;2023-02-01T04:46:43;97908.97;;;17.74;49.10
56414;BME280;42318;48.452;19.526;2023-02-01T04:54:14;97920.47;;;17.81;48.65
56414;BME280;42318;48.452;19.526;2023-02-01T05:01:45;97914.47;;;17.79;48.89
56414;BME280;42318;48.452;19.526;2023-02-01T05:09:15;97900.94;;;17.79;48.75
56414;BME280;42318;48.452;19.526;2023-02-01T05:16:46;97924.13;;;17.70;49.04
56414;BME280;42318;48.452;19.526;2023-02-01T05:24:17;97929.59;;;17.75;48.88
56414;BME280;42318;48.452;19.526;2023-02-01T05:31:50;97927.94;;;17.74;48.90
56414;BME280;42318;48.452;19.526;2023-02-01T05:39:20;97935.34;;;17.79;48.71
56414;BME280;42318;48.452;19.526;2023-02-01T05:46:51;97934.94;;;17.70;48.99
56414;BME280;42318;48.452;19.526;2023-02-01T05:54:22;97958.00;;;17.73;48.99
56414;BME280;42318;48.452;19.526;2023-02-01T06:01:53;97957.06;;;17.84;48.63
56414;BME280;42318;48.452;19.526;2023-02-01T06:09:24;97968.03;;;17.72;48.76
56414;BME280;42318;48.452;19.526;2023-02-01T06:16:55;97977.78;;;17.73;48.76
56414;BME280;42318;48.452;19.526;2023-02-01T06:24:26;97987.06;;;17.77;48.66
56414;BME280;42318;48.452;19.526;2023-02-01T06:31:57;97968.84;;;17.73;48.96
56414;BME280;42318;48.452;19.526;2023-02-01T06:39:28;97973.59;;;17.82;48.83
56414;BME280;42318;48.452;19.526;2023-02-01T06:46:59;97975.22;;;17.83;48.78
56414;BME280;42318;48.452;19.526;2023-02-01T06:54:30;97970.88;;;17.82;48.79
56414;BME280;42318;48.452;19.526;2023-02-01T07:02:04;97982.91;;;17.92;48.48
56414;BME280;42318;48.452;19.526;2023-02-01T07:09:34;97983.16;;;17.90;48.88
56414;BME280;42318;48.452;19.526;2023-02-01T07:17:05;97962.00;;;17.87;48.61
56414;BME280;42318;48.452;19.526;2023-02-01T07:24:36;97969.16;;;17.98;48.65
56414;BME280;42318;48.452;19.526;2023-02-01T07:32:07;97987.72;;;18.11;48.59
56414;BME280;42318;48.452;19.526;2023-02-01T07:39:37;97997.28;;;18.19;48.27
56414;BME280;42318;48.452;19.526;2023-02-01T07:47:08;97991.50;;;18.10;48.29
56414;BME280;42318;48.452;19.526;2023-02-01T07:54:39;97997.25;;;18.14;48.38
56414;BME280;42318;48.452;19.526;2023-02-01T08:02:10;98026.94;;;18.26;48.16
56414;BME280;42318;48.452;19.526;2023-02-01T08:09:40;98005.16;;;18.20;48.34
56414;BME280;42318;48.452;19.526;2023-02-01T08:17:11;98013.81;;;18.17;48.34
56414;BME280;42318;48.452;19.526;2023-02-01T08:24:42;97997.97;;;18.31;47.94
56414;BME280;42318;48.452;19.526;2023-02-01T08:32:13;97994.19;;;18.32;48.15
56414;BME280;42318;48.452;19.526;2023-02-01T08:39:43;97973.56;;;18.31;48.37
56414;BME280;42318;48.452;19.526;2023-02-01T08:47:15;97989.88;;;18.36;48.46
56414;BME280;42318;48.452;19.526;2023-02-01T08:54:46;98006.78;;;18.43;47.93
56414;BME280;42318;48.452;19.526;2023-02-01T09:02:17;98018.75;;;18.47;47.82
56414;BME280;42318;48.452;19.526;2023-02-01T09:09:48;98015.81;;;18.54;47.85
56414;BME280;42318;48.452;19.526;2023-02-01T09:17:18;98029.63;;;18.52;48.16
56414;BME280;42318;48.452;19.526;2023-02-01T09:24:49;98034.50;;;18.50;48.29
56414;BME280;42318;48.452;19.526;2023-02-01T09:32:22;98021.16;;;18.44;48.40
56414;BME280;42318;48.452;19.526;2023-02-01T09:39:53;98007.22;;;18.35;48.45
56414;BME280;42318;48.452;19.526;2023-02-01T09:47:24;97982.53;;;18.32;48.54
56414;BME280;42318;48.452;19.526;2023-02-01T09:55:00;97983.09;;;18.34;48.49
56414;BME280;42318;48.452;19.526;2023-02-01T10:02:35;97967.59;;;18.29;48.74
56414;BME280;42318;48.452;19.526;2023-02-01T10:10:21;97955.69;;;18.35;48.69
56414;BME280;42318;48.452;19.526;2023-02-01T10:26:08;97964.69;;;18.41;48.53
56414;BME280;42318;48.452;19.526;2023-02-01T10:34:09;97943.81;;;18.41;48.29
56414;BME280;42318;48.452;19.526;2023-02-01T10:41:38;97934.09;;;18.45;48.51
56414;BME280;42318;48.452;19.526;2023-02-01T10:49:24;97905.53;;;18.38;48.56
56414;BME280;42318;48.452;19.526;2023-02-01T10:56:57;97917.78;;;18.40;48.43
56414;BME280;42318;48.452;19.526;2023-02-01T11:04:32;97917.16;;;18.33;48.45
56414;BME280;42318;48.452;19.526;2023-02-01T11:12:04;97904.66;;;18.27;48.76
56414;BME280;42318;48.452;19.526;2023-02-01T11:19:35;97898.94;;;18.24;49.05
56414;BME280;42318;48.452;19.526;2023-02-01T11:27:15;97906.72;;;18.20;48.91
56414;BME280;42318;48.452;19.526;2023-02-01T11:34:50;97895.28;;;18.13;49.22
56414;BME280;42318;48.452;19.526;2023-02-01T11:42:23;97889.41;;;18.21;48.81
56414;BME280;42318;48.452;19.526;2023-02-01T11:49:59;97893.50;;;18.24;48.83
56414;BME280;42318;48.452;19.526;2023-02-01T12:36:22;97864.41;;;18.19;48.68
56414;BME280;42318;48.452;19.526;2023-02-01T12:44:10;97846.44;;;18.08;48.96
56414;BME280;42318;48.452;19.526;2023-02-01T12:51:45;97835.75;;;18.23;48.67
56414;BME280;42318;48.452;19.526;2023-02-01T13:07:35;97832.22;;;18.23;48.70
56414;BME280;42318;48.452;19.526;2023-02-01T13:15:16;97836.19;;;18.15;48.89
56414;BME280;42318;48.452;19.526;2023-02-01T13:22:57;97826.91;;;18.06;48.91
56414;BME280;42318;48.452;19.526;2023-02-01T13:46:22;97809.06;;;18.15;49.21
56414;BME280;42318;48.452;19.526;2023-02-01T13:53:53;97802.94;;;18.25;48.99
56414;BME280;42318;48.452;19.526;2023-02-01T14:09:33;97798.22;;;18.15;49.60
56414;BME280;42318;48.452;19.526;2023-02-01T14:24:41;97787.38;;;18.15;49.61
56414;BME280;42318;48.452;19.526;2023-02-01T14:32:22;97770.94;;;18.27;49.42
56414;BME280;42318;48.452;19.526;2023-02-01T14:40:03;97772.31;;;18.29;49.45
56414;BME280;42318;48.452;19.526;2023-02-01T14:47:34;97766.31;;;18.22;49.65
56414;BME280;42318;48.452;19.526;2023-02-01T14:55:11;97754.38;;;18.23;49.67
56414;BME280;42318;48.452;19.526;2023-02-01T15:02:45;97750.63;;;18.29;49.46
56414;BME280;42318;48.452;19.526;2023-02-01T15:10:20;97746.75;;;18.20;49.71
56414;BME280;42318;48.452;19.526;2023-02-01T15:17:59;97749.00;;;18.28;49.63
56414;BME280;42318;48.452;19.526;2023-02-01T15:25:38;97758.41;;;18.20;49.46
56414;BME280;42318;48.452;19.526;2023-02-01T15:33:18;97745.56;;;18.06;50.02
56414;BME280;42318;48.452;19.526;2023-02-01T15:40:57;97762.88;;;18.00;50.12
56414;BME280;42318;48.452;19.526;2023-02-01T15:48:42;97753.63;;;17.96;50.07
56414;BME280;42318;48.452;19.526;2023-02-01T15:56:14;97763.47;;;18.07;49.65
56414;BME280;42318;48.452;19.526;2023-02-01T16:03:46;97771.50;;;18.29;49.16
56414;BME280;42318;48.452;19.526;2023-02-01T16:11:25;97767.50;;;18.41;48.75
56414;BME280;42318;48.452;19.526;2023-02-01T16:18:58;97753.72;;;18.48;48.75
56414;BME280;42318;48.452;19.526;2023-02-01T16:26:30;97740.94;;;18.43;48.33
56414;BME280;42318;48.452;19.526;2023-02-01T16:34:02;97755.06;;;18.45;48.43
56414;BME280;42318;48.452;19.526;2023-02-01T16:41:33;97769.75;;;18.55;48.47
56414;BME280;42318;48.452;19.526;2023-02-01T16:49:05;97767.84;;;18.55;48.19
56414;BME280;42318;48.452;19.526;2023-02-01T16:56:36;97775.69;;;18.46;48.31
56414;BME280;42318;48.452;19.526;2023-02-01T17:04:10;97785.50;;;18.58;48.09
56414;BME280;42318;48.452;19.526;2023-02-01T17:11:41;97809.66;;;18.59;48.23
56414;BME280;42318;48.452;19.526;2023-02-01T17:19:16;97792.56;;;18.59;47.97
56414;BME280;42318;48.452;19.526;2023-02-01T17:26:48;97794.44;;;18.58;48.11
56414;BME280;42318;48.452;19.526;2023-02-01T17:34:21;97796.09;;;18.59;48.32
56414;BME280;42318;48.452;19.526;2023-02-01T17:41:52;97801.56;;;18.64;48.96
56414;BME280;42318;48.452;19.526;2023-02-01T17:49:23;97793.50;;;18.69;49.03
56414;BME280;42318;48.452;19.526;2023-02-01T17:56:54;97784.25;;;18.70;48.87
56414;BME280;42318;48.452;19.526;2023-02-01T18:04:26;97810.06;;;18.73;49.18
56414;BME280;42318;48.452;19.526;2023-02-01T18:11:57;97823.06;;;18.71;49.16
56414;BME280;42318;48.452;19.526;2023-02-01T18:19:28;97819.81;;;18.74;48.81
56414;BME280;42318;48.452;19.526;2023-02-01T18:26:59;97819.28;;;18.72;48.71
56414;BME280;42318;48.452;19.526;2023-02-01T18:34:30;97830.69;;;18.74;48.78
56414;BME280;42318;48.452;19.526;2023-02-01T18:42:01;97837.72;;;18.70;49.26
56414;BME280;42318;48.452;19.526;2023-02-01T18:49:31;97848.84;;;18.68;49.64
56414;BME280;42318;48.452;19.526;2023-02-01T18:57:02;97838.81;;;18.69;49.59
56414;BME280;42318;48.452;19.526;2023-02-01T19:04:33;97859.78;;;18.83;49.25
56414;BME280;42318;48.452;19.526;2023-02-01T19:12:04;97856.78;;;18.85;49.16
56414;BME280;42318;48.452;19.526;2023-02-01T19:19:36;97858.47;;;18.96;48.87
56414;BME280;42318;48.452;19.526;2023-02-01T19:27:06;97830.28;;;19.02;48.82
56414;BME280;42318;48.452;19.526;2023-02-01T19:34:39;97833.53;;;19.04;48.79
56414;BME280;42318;48.452;19.526;2023-02-01T19:42:10;97847.13;;;19.04;48.55
56414;BME280;42318;48.452;19.526;2023-02-01T19:49:41;97841.72;;;19.09;48.78
56414;BME280;42318;48.452;19.526;2023-02-01T19:57:12;97829.81;;;19.16;48.42
56414;BME280;42318;48.452;19.526;2023-02-01T20:04:43;97809.16;;;19.14;48.39
56414;BME280;42318;48.452;19.526;2023-02-01T20:12:14;97827.63;;;19.18;48.27
56414;BME280;42318;48.452;19.526;2023-02-01T20:19:44;97810.53;;;19.17;48.19
56414;BME280;42318;48.452;19.526;2023-02-01T20:27:15;97810.53;;;19.22;48.17
56414;BME280;42318;48.452;19.526;2023-02-01T20:34:47;97796.44;;;19.25;48.37
56414;BME280;42318;48.452;19.526;2023-02-01T20:42:20;97792.09;;;19.29;48.01
56414;BME280;42318;48.452;19.526;2023-02-01T20:49:51;97794.53;;;19.26;48.17
56414;BME280;42318;48.452;19.526;2023-02-01T20:57:22;97789.38;;;19.34;47.96
56414;BME280;42318;48.452;19.526;2023-02-01T21:04:52;97795.06;;;19.23;48.11
56414;BME280;42318;48.452;19.526;2023-02-01T21:12:23;97772.53;;;19.27;48.20
56414;BME280;42318;48.452;19.526;2023-02-01T21:19:54;97766.78;;;19.13;48.28
56414;BME280;42318;48.452;19.526;2023-02-01T21:27:25;97770.34;;;19.24;48.32
56414;BME280;42318;48.452;19.526;2023-02-01T21:34:56;97770.09;;;19.31;48.15
56414;BME280;42318;48.452;19.526;2023-02-01T21:42:30;97758.69;;;19.34;48.19
56414;BME280;42318;48.452;19.526;2023-02-01T21:50:01;97760.88;;;19.37;47.78
56414;BME280;42318;48.452;19.526;2023-02-01T21:57:32;97755.72;;;19.40;47.80
56414;BME280;42318;48.452;19.526;2023-02-01T22:05:04;97751.63;;;19.43;48.07
56414;BME280;42318;48.452;19.526;2023-02-01T22:12:36;97753.84;;;19.51;47.76
56414;BME280;42318;48.452;19.526;2023-02-01T22:20:07;97738.59;;;19.50;47.70
56414;BME280;42318;48.452;19.526;2023-02-01T22:27:38;97714.72;;;19.52;47.90
56414;BME280;42318;48.452;19.526;2023-02-01T22:35:09;97716.06;;;19.50;48.02
56414;BME280;42318;48.452;19.526;2023-02-01T22:42:39;97707.69;;;19.56;47.92
56414;BME280;42318;48.452;19.526;2023-02-01T22:50:10;97702.81;;;19.58;47.99
56414;BME280;42318;48.452;19.526;2023-02-01T22:57:41;97695.19;;;19.60;47.76
56414;BME280;42318;48.452;19.526;2023-02-01T23:05:12;97683.78;;;19.63;47.62
56414;BME280;42318;48.452;19.526;2023-02-01T23:12:46;97680.25;;;19.63;47.57
56414;BME280;42318;48.452;19.526;2023-02-01T23:20:18;97675.63;;;19.68;47.91
56414;BME280;42318;48.452;19.526;2023-02-01T23:27:49;97666.38;;;19.59;47.99
56414;BME280;42318;48.452;19.526;2023-02-01T23:35:20;97637.03;;;19.51;47.92
56414;BME280;42318;48.452;19.526;2023-02-01T23:42:50;97644.66;;;19.59;47.65
56414;BME280;42318;48.452;19.526;2023-02-01T23:50:40;97656.06;;;19.61;47.73
56414;BME280;42318;48.452;19.526;2023-02-01T23:58:10;97659.88;;;19.60;47.44
